sensor_id;sensor_type;location;lat;lon;timestamp;temperature;humidity
35746;DHT22;21870;42.812;74.628;2023-02-28T00:00:25;1.90;99.90
35746;DHT22;21870;42.812;74.628;2023-02-28T00:02:51;1.90;99.90
35746;DHT22;21870;42.812;74.628;2023-02-28T00:05:20;2.00;99.90
35746;DHT22;21870;42.812;74.628;2023-02-28T00:07:47;1.90;99.90
35746;DHT22;21870;42.812;74.628;2023-02-28T00:10:17;1.90;99.90
35746;DHT22;21870;42.812;74.628;2023-02-28T00:12:53;1.80;99.90
35746;DHT22;21870;42.812;74.628;2023-02-28T00:15:20;1.70;99.90
35746;DHT22;21870;42.812;74.628;2023-02-28T00:17:48;1.70;99.90
35746;DHT22;21870;42.812;74.628;2023-02-28T00:20:15;1.70;99.90
35746;DHT22;21870;42.812;74.628;2023-02-28T00:22:43;1.70;99.90
35746;DHT22;21870;42.812;74.628;2023-02-28T00:25:12;1.90;99.90
35746;DHT22;21870;42.812;74.628;2023-02-28T00:27:40;2.10;99.90
35746;DHT22;21870;42.812;74.628;2023-02-28T00:30:08;2.20;99.90
35746;DHT22;21870;42.812;74.628;2023-02-28T00:32:34;2.30;99.90
35746;DHT22;21870;42.812;74.628;2023-02-28T00:35:01;2.00;99.90
35746;DHT22;21870;42.812;74.628;2023-02-28T00:37:27;2.00;99.90
35746;DHT22;21870;42.812;74.628;2023-02-28T00:39:53;1.90;99.90
35746;DHT22;21870;42.812;74.628;2023-02-28T00:42:19;1.90;99.90
35746;DHT22;21870;42.812;74.628;2023-02-28T00:44:46;2.00;99.90
35746;DHT22;21870;42.812;74.628;2023-02-28T00:47:12;2.00;99.90
35746;DHT22;21870;42.812;74.628;2023-02-28T00:49:38;2.10;99.90
35746;DHT22;21870;42.812;74.628;2023-02-28T00:52:04;2.00;99.90
35746;DHT22;21870;42.812;74.628;2023-02-28T00:54:30;1.90;99.90
35746;DHT22;21870;42.812;74.628;2023-02-28T00:56:56;1.80;99.90
35746;DHT22;21870;42.812;74.628;2023-02-28T00:59:22;1.80;99.90
35746;DHT22;21870;42.812;74.628;2023-02-28T01:01:48;1.70;99.90
35746;DHT22;21870;42.812;74.628;2023-02-28T01:04:14;1.60;99.90
35746;DHT22;21870;42.812;74.628;2023-02-28T01:06:41;1.70;99.90
35746;DHT22;21870;42.812;74.628;2023-02-28T01:09:08;1.70;99.90
35746;DHT22;21870;42.812;74.628;2023-02-28T01:11:35;1.70;99.90
35746;DHT22;21870;42.812;74.628;2023-02-28T01:14:01;1.50;99.90
35746;DHT22;21870;42.812;74.628;2023-02-28T01:16:28;1.50;99.90
35746;DHT22;21870;42.812;74.628;2023-02-28T01:18:54;1.60;99.90
35746;DHT22;21870;42.812;74.628;2023-02-28T01:21:21;1.70;99.90
35746;DHT22;21870;42.812;74.628;2023-02-28T01:23:48;1.70;99.90
35746;DHT22;21870;42.812;74.628;2023-02-28T01:26:17;1.80;99.90
35746;DHT22;21870;42.812;74.628;2023-02-28T01:28:43;1.90;99.90
35746;DHT22;21870;42.812;74.628;2023-02-28T01:31:10;1.90;99.90
35746;DHT22;21870;42.812;74.628;2023-02-28T01:33:39;2.00;99.90
35746;DHT22;21870;42.812;74.628;2023-02-28T01:36:25;2.20;99.90
35746;DHT22;21870;42.812;74.628;2023-02-28T01:38:51;2.40;99.90
35746;DHT22;21870;42.812;74.628;2023-02-28T01:41:20;2.40;99.90
35746;DHT22;21870;42.812;74.628;2023-02-28T01:46:13;2.10;99.90
35746;DHT22;21870;42.812;74.628;2023-02-28T01:48:48;2.00;99.90
35746;DHT22;21870;42.812;74.628;2023-02-28T01:51:26;1.90;99.90
35746;DHT22;21870;42.812;74.628;2023-02-28T01:54:02;1.90;99.90
35746;DHT22;21870;42.812;74.628;2023-02-28T01:56:32;1.90;99.90
35746;DHT22;21870;42.812;74.628;2023-02-28T01:58:58;1.90;99.90
35746;DHT22;21870;42.812;74.628;2023-02-28T02:01:27;2.00;99.90
35746;DHT22;21870;42.812;74.628;2023-02-28T02:03:55;2.10;99.90
35746;DHT22;21870;42.812;74.628;2023-02-28T02:06:28;2.00;99.90
35746;DHT22;21870;42.812;74.628;2023-02-28T02:08:55;2.10;99.90
35746;DHT22;21870;42.812;74.628;2023-02-28T02:11:22;2.10;99.90
35746;DHT22;21870;42.812;74.628;2023-02-28T02:25:42;2.20;99.90
35746;DHT22;21870;42.812;74.628;2023-02-28T02:28:22;2.20;99.90
35746;DHT22;21870;42.812;74.628;2023-02-28T02:34:31;2.40;99.90
35746;DHT22;21870;42.812;74.628;2023-02-28T02:39:54;2.80;99.90
35746;DHT22;21870;42.812;74.628;2023-02-28T02:42:47;3.00;99.90
35746;DHT22;21870;42.812;74.628;2023-02-28T02:45:22;3.20;99.90
35746;DHT22;21870;42.812;74.628;2023-02-28T02:47:50;3.40;99.90
35746;DHT22;21870;42.812;74.628;2023-02-28T02:50:24;3.50;99.90
35746;DHT22;21870;42.812;74.628;2023-02-28T02:52:55;3.70;99.90
35746;DHT22;21870;42.812;74.628;2023-02-28T02:55:23;3.90;99.90
35746;DHT22;21870;42.812;74.628;2023-02-28T02:58:00;4.20;99.90
35746;DHT22;21870;42.812;74.628;2023-02-28T03:00:33;4.40;99.90
35746;DHT22;21870;42.812;74.628;2023-02-28T03:03:01;4.70;99.90
35746;DHT22;21870;42.812;74.628;2023-02-28T03:05:36;5.00;99.90
35746;DHT22;21870;42.812;74.628;2023-02-28T03:08:05;5.20;99.90
35746;DHT22;21870;42.812;74.628;2023-02-28T03:10:36;5.50;99.90
35746;DHT22;21870;42.812;74.628;2023-02-28T03:16:05;6.00;99.90
35746;DHT22;21870;42.812;74.628;2023-02-28T03:19:21;6.30;99.90
35746;DHT22;21870;42.812;74.628;2023-02-28T03:27:27;7.30;99.90
35746;DHT22;21870;42.812;74.628;2023-02-28T03:30:06;7.70;99.90
35746;DHT22;21870;42.812;74.628;2023-02-28T03:35:11;8.10;99.90
35746;DHT22;21870;42.812;74.628;2023-02-28T03:37:42;8.20;99.90
35746;DHT22;21870;42.812;74.628;2023-02-28T03:40:23;8.40;99.90
35746;DHT22;21870;42.812;74.628;2023-02-28T03:42:57;8.60;99.90
35746;DHT22;21870;42.812;74.628;2023-02-28T03:45:28;8.70;99.90
35746;DHT22;21870;42.812;74.628;2023-02-28T03:48:01;8.90;99.90
35746;DHT22;21870;42.812;74.628;2023-02-28T03:50:41;9.00;99.90
35746;DHT22;21870;42.812;74.628;2023-02-28T03:53:35;9.20;99.90
35746;DHT22;21870;42.812;74.628;2023-02-28T03:56:11;9.50;99.90
35746;DHT22;21870;42.812;74.628;2023-02-28T03:58:57;9.70;99.90
35746;DHT22;21870;42.812;74.628;2023-02-28T04:01:32;9.90;99.90
35746;DHT22;21870;42.812;74.628;2023-02-28T04:03:59;10.10;99.90
35746;DHT22;21870;42.812;74.628;2023-02-28T04:06:26;10.40;99.90
35746;DHT22;21870;42.812;74.628;2023-02-28T04:08:52;10.60;99.90
35746;DHT22;21870;42.812;74.628;2023-02-28T04:11:31;10.90;99.90
35746;DHT22;21870;42.812;74.628;2023-02-28T04:13:58;11.00;99.90
35746;DHT22;21870;42.812;74.628;2023-02-28T04:16:24;11.40;99.90
35746;DHT22;21870;42.812;74.628;2023-02-28T04:18:50;10.70;96.20
35746;DHT22;21870;42.812;74.628;2023-02-28T04:21:16;11.70;96.20
35746;DHT22;21870;42.812;74.628;2023-02-28T04:23:46;11.90;95.30
35746;DHT22;21870;42.812;74.628;2023-02-28T04:26:12;12.10;90.50
35746;DHT22;21870;42.812;74.628;2023-02-28T04:28:38;12.30;88.20
35746;DHT22;21870;42.812;74.628;2023-02-28T04:31:05;12.40;85.20
35746;DHT22;21870;42.812;74.628;2023-02-28T04:33:32;12.60;84.70
35746;DHT22;21870;42.812;74.628;2023-02-28T04:36:03;12.70;86.20
35746;DHT22;21870;42.812;74.628;2023-02-28T04:38:32;12.90;84.60
35746;DHT22;21870;42.812;74.628;2023-02-28T04:40:59;13.10;84.50
35746;DHT22;21870;42.812;74.628;2023-02-28T04:43:29;13.30;82.00
35746;DHT22;21870;42.812;74.628;2023-02-28T04:45:56;13.40;80.90
35746;DHT22;21870;42.812;74.628;2023-02-28T04:48:30;13.40;76.70
35746;DHT22;21870;42.812;74.628;2023-02-28T04:51:01;13.50;79.10
35746;DHT22;21870;42.812;74.628;2023-02-28T04:53:28;13.70;79.40
35746;DHT22;21870;42.812;74.628;2023-02-28T04:55:55;13.70;78.30
35746;DHT22;21870;42.812;74.628;2023-02-28T04:58:21;13.90;80.50
35746;DHT22;21870;42.812;74.628;2023-02-28T05:00:52;14.00;78.20
35746;DHT22;21870;42.812;74.628;2023-02-28T05:03:19;14.10;77.50
35746;DHT22;21870;42.812;74.628;2023-02-28T05:05:46;14.40;78.10
35746;DHT22;21870;42.812;74.628;2023-02-28T05:08:12;14.50;77.50
35746;DHT22;21870;42.812;74.628;2023-02-28T05:10:39;14.70;78.50
35746;DHT22;21870;42.812;74.628;2023-02-28T05:13:05;14.80;77.40
35746;DHT22;21870;42.812;74.628;2023-02-28T05:15:31;15.20;78.20
35746;DHT22;21870;42.812;74.628;2023-02-28T05:17:57;15.30;78.20
35746;DHT22;21870;42.812;74.628;2023-02-28T05:20:23;15.60;79.90
35746;DHT22;21870;42.812;74.628;2023-02-28T05:22:50;15.60;81.40
35746;DHT22;21870;42.812;74.628;2023-02-28T05:25:19;15.80;80.10
35746;DHT22;21870;42.812;74.628;2023-02-28T05:27:45;15.80;78.60
35746;DHT22;21870;42.812;74.628;2023-02-28T05:30:11;15.80;78.20
35746;DHT22;21870;42.812;74.628;2023-02-28T05:32:38;16.10;78.00
35746;DHT22;21870;42.812;74.628;2023-02-28T05:35:11;16.30;74.00
35746;DHT22;21870;42.812;74.628;2023-02-28T05:37:38;16.40;72.60
35746;DHT22;21870;42.812;74.628;2023-02-28T05:40:06;16.60;74.00
35746;DHT22;21870;42.812;74.628;2023-02-28T05:42:34;16.80;74.80
35746;DHT22;21870;42.812;74.628;2023-02-28T05:45:00;17.00;73.10
35746;DHT22;21870;42.812;74.628;2023-02-28T05:47:26;17.10;70.70
35746;DHT22;21870;42.812;74.628;2023-02-28T05:49:52;17.40;69.60
35746;DHT22;21870;42.812;74.628;2023-02-28T05:52:18;17.40;68.90
35746;DHT22;21870;42.812;74.628;2023-02-28T05:54:46;17.70;68.50
35746;DHT22;21870;42.812;74.628;2023-02-28T05:57:15;17.80;68.80
35746;DHT22;21870;42.812;74.628;2023-02-28T05:59:41;17.90;68.00
35746;DHT22;21870;42.812;74.628;2023-02-28T06:02:15;18.10;64.50
35746;DHT22;21870;42.812;74.628;2023-02-28T06:04:42;18.30;64.80
35746;DHT22;21870;42.812;74.628;2023-02-28T06:07:09;18.40;68.00
35746;DHT22;21870;42.812;74.628;2023-02-28T06:09:36;18.50;66.40
35746;DHT22;21870;42.812;74.628;2023-02-28T06:12:04;18.60;64.80
35746;DHT22;21870;42.812;74.628;2023-02-28T06:14:33;18.80;66.30
35746;DHT22;21870;42.812;74.628;2023-02-28T06:17:00;18.90;66.30
35746;DHT22;21870;42.812;74.628;2023-02-28T06:19:26;19.00;65.30
35746;DHT22;21870;42.812;74.628;2023-02-28T06:21:53;18.90;64.80
35746;DHT22;21870;42.812;74.628;2023-02-28T06:24:24;18.90;62.10
35746;DHT22;21870;42.812;74.628;2023-02-28T06:26:50;19.10;63.10
35746;DHT22;21870;42.812;74.628;2023-02-28T06:29:17;19.30;63.30
35746;DHT22;21870;42.812;74.628;2023-02-28T06:31:46;19.30;64.20
35746;DHT22;21870;42.812;74.628;2023-02-28T06:34:13;19.50;65.80
35746;DHT22;21870;42.812;74.628;2023-02-28T06:36:40;19.60;63.90
35746;DHT22;21870;42.812;74.628;2023-02-28T06:39:08;19.70;62.10
35746;DHT22;21870;42.812;74.628;2023-02-28T06:41:34;19.70;61.70
35746;DHT22;21870;42.812;74.628;2023-02-28T06:44:12;19.90;61.40
35746;DHT22;21870;42.812;74.628;2023-02-28T06:46:42;19.80;60.60
35746;DHT22;21870;42.812;74.628;2023-02-28T06:49:10;19.90;61.50
35746;DHT22;21870;42.812;74.628;2023-02-28T06:51:38;19.80;61.40
35746;DHT22;21870;42.812;74.628;2023-02-28T06:54:05;19.90;59.70
35746;DHT22;21870;42.812;74.628;2023-02-28T06:56:35;20.00;58.60
35746;DHT22;21870;42.812;74.628;2023-02-28T06:59:01;20.00;58.10
35746;DHT22;21870;42.812;74.628;2023-02-28T07:01:27;20.20;58.30
35746;DHT22;21870;42.812;74.628;2023-02-28T07:03:54;20.40;59.10
35746;DHT22;21870;42.812;74.628;2023-02-28T07:06:23;20.50;59.90
35746;DHT22;21870;42.812;74.628;2023-02-28T07:08:51;20.70;58.40
35746;DHT22;21870;42.812;74.628;2023-02-28T07:11:22;20.80;57.50
35746;DHT22;21870;42.812;74.628;2023-02-28T07:13:49;20.90;56.80
35746;DHT22;21870;42.812;74.628;2023-02-28T07:16:16;20.70;57.00
35746;DHT22;21870;42.812;74.628;2023-02-28T07:18:42;20.90;57.40
35746;DHT22;21870;42.812;74.628;2023-02-28T07:21:12;20.90;56.70
35746;DHT22;21870;42.812;74.628;2023-02-28T07:23:39;21.10;57.60
35746;DHT22;21870;42.812;74.628;2023-02-28T07:26:06;21.20;56.80
35746;DHT22;21870;42.812;74.628;2023-02-28T07:28:33;21.50;55.80
35746;DHT22;21870;42.812;74.628;2023-02-28T07:31:06;21.70;56.20
35746;DHT22;21870;42.812;74.628;2023-02-28T07:33:33;21.70;55.60
35746;DHT22;21870;42.812;74.628;2023-02-28T07:36:08;21.90;56.40
35746;DHT22;21870;42.812;74.628;2023-02-28T07:38:35;21.80;56.30
35746;DHT22;21870;42.812;74.628;2023-02-28T07:41:02;21.80;56.30
35746;DHT22;21870;42.812;74.628;2023-02-28T07:43:30;22.00;56.80
35746;DHT22;21870;42.812;74.628;2023-02-28T07:46:11;22.10;58.20
35746;DHT22;21870;42.812;74.628;2023-02-28T07:48:38;22.00;56.80
35746;DHT22;21870;42.812;74.628;2023-02-28T07:51:04;22.00;58.30
35746;DHT22;21870;42.812;74.628;2023-02-28T07:53:30;22.00;57.80
35746;DHT22;21870;42.812;74.628;2023-02-28T07:56:01;22.00;58.40
35746;DHT22;21870;42.812;74.628;2023-02-28T07:58:29;21.90;57.90
35746;DHT22;21870;42.812;74.628;2023-02-28T08:00:55;22.00;57.60
35746;DHT22;21870;42.812;74.628;2023-02-28T08:03:22;21.80;56.50
35746;DHT22;21870;42.812;74.628;2023-02-28T08:05:49;21.60;56.30
35746;DHT22;21870;42.812;74.628;2023-02-28T08:08:16;21.40;56.30
35746;DHT22;21870;42.812;74.628;2023-02-28T08:10:42;21.60;56.50
35746;DHT22;21870;42.812;74.628;2023-02-28T08:13:09;21.60;56.30
35746;DHT22;21870;42.812;74.628;2023-02-28T08:15:35;21.60;57.40
35746;DHT22;21870;42.812;74.628;2023-02-28T08:18:02;21.70;56.60
35746;DHT22;21870;42.812;74.628;2023-02-28T08:20:28;21.70;56.40
35746;DHT22;21870;42.812;74.628;2023-02-28T08:22:54;21.90;56.40
35746;DHT22;21870;42.812;74.628;2023-02-28T08:25:20;22.00;55.60
35746;DHT22;21870;42.812;74.628;2023-02-28T08:27:46;22.00;55.50
35746;DHT22;21870;42.812;74.628;2023-02-28T08:30:13;22.10;55.80
35746;DHT22;21870;42.812;74.628;2023-02-28T08:32:40;22.10;55.50
35746;DHT22;21870;42.812;74.628;2023-02-28T08:35:07;22.10;56.20
35746;DHT22;21870;42.812;74.628;2023-02-28T08:37:34;22.30;55.20
35746;DHT22;21870;42.812;74.628;2023-02-28T08:40:01;22.30;55.70
35746;DHT22;21870;42.812;74.628;2023-02-28T08:42:27;22.20;56.20
35746;DHT22;21870;42.812;74.628;2023-02-28T08:44:53;22.10;55.90
35746;DHT22;21870;42.812;74.628;2023-02-28T08:47:19;22.10;56.00
35746;DHT22;21870;42.812;74.628;2023-02-28T08:49:45;22.10;55.70
35746;DHT22;21870;42.812;74.628;2023-02-28T08:52:11;22.20;55.50
35746;DHT22;21870;42.812;74.628;2023-02-28T08:54:38;22.10;56.10
35746;DHT22;21870;42.812;74.628;2023-02-28T08:57:04;22.20;53.70
35746;DHT22;21870;42.812;74.628;2023-02-28T08:59:30;22.20;54.70
35746;DHT22;21870;42.812;74.628;2023-02-28T09:01:56;22.10;54.30
35746;DHT22;21870;42.812;74.628;2023-02-28T09:04:22;22.10;57.30
35746;DHT22;21870;42.812;74.628;2023-02-28T09:06:48;21.80;57.90
35746;DHT22;21870;42.812;74.628;2023-02-28T09:09:15;21.80;58.40
35746;DHT22;21870;42.812;74.628;2023-02-28T09:11:41;21.90;58.60
35746;DHT22;21870;42.812;74.628;2023-02-28T09:14:07;21.90;58.50
35746;DHT22;21870;42.812;74.628;2023-02-28T09:16:34;21.70;59.40
35746;DHT22;21870;42.812;74.628;2023-02-28T09:19:01;21.80;59.10
35746;DHT22;21870;42.812;74.628;2023-02-28T09:21:27;21.70;59.00
35746;DHT22;21870;42.812;74.628;2023-02-28T09:23:53;21.70;58.80
35746;DHT22;21870;42.812;74.628;2023-02-28T09:26:25;21.30;58.40
35746;DHT22;21870;42.812;74.628;2023-02-28T09:28:53;21.50;58.50
35746;DHT22;21870;42.812;74.628;2023-02-28T09:31:22;21.30;58.10
35746;DHT22;21870;42.812;74.628;2023-02-28T09:33:50;21.30;58.10
35746;DHT22;21870;42.812;74.628;2023-02-28T09:36:17;21.30;57.70
35746;DHT22;21870;42.812;74.628;2023-02-28T09:38:44;21.30;58.10
35746;DHT22;21870;42.812;74.628;2023-02-28T09:41:25;21.30;58.60
35746;DHT22;21870;42.812;74.628;2023-02-28T09:44:00;21.40;58.70
35746;DHT22;21870;42.812;74.628;2023-02-28T09:46:48;21.50;58.50
35746;DHT22;21870;42.812;74.628;2023-02-28T09:49:18;21.50;57.70
35746;DHT22;21870;42.812;74.628;2023-02-28T09:51:58;21.40;57.90
35746;DHT22;21870;42.812;74.628;2023-02-28T09:54:28;21.30;58.90
35746;DHT22;21870;42.812;74.628;2023-02-28T09:57:00;21.30;59.00
35746;DHT22;21870;42.812;74.628;2023-02-28T10:02:35;21.00;58.10
35746;DHT22;21870;42.812;74.628;2023-02-28T10:05:18;21.20;58.40
35746;DHT22;21870;42.812;74.628;2023-02-28T10:15:45;20.90;62.40
35746;DHT22;21870;42.812;74.628;2023-02-28T10:18:16;21.00;62.40
35746;DHT22;21870;42.812;74.628;2023-02-28T10:20:47;20.90;62.30
35746;DHT22;21870;42.812;74.628;2023-02-28T10:23:21;21.00;62.00
35746;DHT22;21870;42.812;74.628;2023-02-28T10:25:57;20.90;61.60
35746;DHT22;21870;42.812;74.628;2023-02-28T10:28:24;20.80;61.80
35746;DHT22;21870;42.812;74.628;2023-02-28T10:30:53;20.70;62.60
35746;DHT22;21870;42.812;74.628;2023-02-28T10:33:32;20.50;62.10
35746;DHT22;21870;42.812;74.628;2023-02-28T10:36:00;20.40;63.00
35746;DHT22;21870;42.812;74.628;2023-02-28T10:38:38;20.50;63.90
35746;DHT22;21870;42.812;74.628;2023-02-28T10:41:10;20.40;63.90
35746;DHT22;21870;42.812;74.628;2023-02-28T10:43:39;20.20;64.50
35746;DHT22;21870;42.812;74.628;2023-02-28T10:51:01;20.40;65.10
35746;DHT22;21870;42.812;74.628;2023-02-28T10:53:35;20.20;65.20
35746;DHT22;21870;42.812;74.628;2023-02-28T10:56:16;20.10;66.00
35746;DHT22;21870;42.812;74.628;2023-02-28T10:58:54;19.80;65.40
35746;DHT22;21870;42.812;74.628;2023-02-28T11:01:34;19.70;66.10
35746;DHT22;21870;42.812;74.628;2023-02-28T11:04:01;19.60;66.30
35746;DHT22;21870;42.812;74.628;2023-02-28T11:06:32;19.50;67.20
35746;DHT22;21870;42.812;74.628;2023-02-28T11:09:02;19.30;68.00
35746;DHT22;21870;42.812;74.628;2023-02-28T11:11:40;19.20;67.50
35746;DHT22;21870;42.812;74.628;2023-02-28T11:14:20;19.10;68.10
35746;DHT22;21870;42.812;74.628;2023-02-28T11:16:47;19.30;69.60
35746;DHT22;21870;42.812;74.628;2023-02-28T11:19:31;19.20;68.60
35746;DHT22;21870;42.812;74.628;2023-02-28T11:22:02;19.20;68.60
35746;DHT22;21870;42.812;74.628;2023-02-28T11:24:31;19.00;67.80
35746;DHT22;21870;42.812;74.628;2023-02-28T11:26:59;18.90;67.50
35746;DHT22;21870;42.812;74.628;2023-02-28T11:29:33;18.80;67.20
35746;DHT22;21870;42.812;74.628;2023-02-28T11:32:21;18.80;67.30
35746;DHT22;21870;42.812;74.628;2023-02-28T11:35:02;18.80;67.80
35746;DHT22;21870;42.812;74.628;2023-02-28T11:37:30;18.80;67.20
35746;DHT22;21870;42.812;74.628;2023-02-28T11:39:57;18.70;67.10
35746;DHT22;21870;42.812;74.628;2023-02-28T11:43:06;18.60;66.10
35746;DHT22;21870;42.812;74.628;2023-02-28T11:45:44;18.50;67.00
35746;DHT22;21870;42.812;74.628;2023-02-28T11:51:00;18.40;67.10
35746;DHT22;21870;42.812;74.628;2023-02-28T11:56:22;18.10;68.20
35746;DHT22;21870;42.812;74.628;2023-02-28T12:05:34;17.60;69.50
35746;DHT22;21870;42.812;74.628;2023-02-28T12:08:11;17.40;69.50
35746;DHT22;21870;42.812;74.628;2023-02-28T12:10:47;17.20;70.10
35746;DHT22;21870;42.812;74.628;2023-02-28T12:13:20;17.10;71.80
35746;DHT22;21870;42.812;74.628;2023-02-28T12:26:50;16.10;76.70
35746;DHT22;21870;42.812;74.628;2023-02-28T12:32:37;15.70;76.70
35746;DHT22;21870;42.812;74.628;2023-02-28T12:35:12;15.40;77.50
35746;DHT22;21870;42.812;74.628;2023-02-28T12:38:05;15.10;77.90
35746;DHT22;21870;42.812;74.628;2023-02-28T12:40:44;14.80;78.50
35746;DHT22;21870;42.812;74.628;2023-02-28T12:43:14;14.60;79.70
35746;DHT22;21870;42.812;74.628;2023-02-28T12:45:59;14.30;81.30
35746;DHT22;21870;42.812;74.628;2023-02-28T12:51:06;14.10;80.70
35746;DHT22;21870;42.812;74.628;2023-02-28T12:56:29;13.80;80.70
35746;DHT22;21870;42.812;74.628;2023-02-28T13:02:09;13.60;81.80
35746;DHT22;21870;42.812;74.628;2023-02-28T13:04:55;13.40;82.30
35746;DHT22;21870;42.812;74.628;2023-02-28T13:10:04;12.90;84.00
35746;DHT22;21870;42.812;74.628;2023-02-28T13:12:33;12.80;85.10
35746;DHT22;21870;42.812;74.628;2023-02-28T13:17:54;12.50;86.70
35746;DHT22;21870;42.812;74.628;2023-02-28T13:20:25;12.40;88.10
35746;DHT22;21870;42.812;74.628;2023-02-28T13:22:53;11.90;89.00
35746;DHT22;21870;42.812;74.628;2023-02-28T13:27:58;11.80;90.90
35746;DHT22;21870;42.812;74.628;2023-02-28T13:36:12;11.40;93.40
35746;DHT22;21870;42.812;74.628;2023-02-28T13:38:55;11.20;94.40
35746;DHT22;21870;42.812;74.628;2023-02-28T13:46:27;10.70;99.90
35746;DHT22;21870;42.812;74.628;2023-02-28T13:48:53;10.60;99.90
35746;DHT22;21870;42.812;74.628;2023-02-28T13:51:49;10.50;99.90
35746;DHT22;21870;42.812;74.628;2023-02-28T14:05:43;9.60;99.90
35746;DHT22;21870;42.812;74.628;2023-02-28T14:08:19;9.60;99.90
35746;DHT22;21870;42.812;74.628;2023-02-28T14:10:51;9.60;99.90
35746;DHT22;21870;42.812;74.628;2023-02-28T14:13:44;9.70;99.90
35746;DHT22;21870;42.812;74.628;2023-02-28T14:16:24;9.60;99.90
35746;DHT22;21870;42.812;74.628;2023-02-28T14:19:00;9.40;99.90
35746;DHT22;21870;42.812;74.628;2023-02-28T14:21:28;9.40;99.90
35746;DHT22;21870;42.812;74.628;2023-02-28T14:34:57;9.10;99.90
35746;DHT22;21870;42.812;74.628;2023-02-28T14:37:29;9.20;99.90
35746;DHT22;21870;42.812;74.628;2023-02-28T14:39:57;9.20;99.90
35746;DHT22;21870;42.812;74.628;2023-02-28T14:42:32;9.30;99.90
35746;DHT22;21870;42.812;74.628;2023-02-28T14:44:59;9.40;99.90
35746;DHT22;21870;42.812;74.628;2023-02-28T14:47:30;9.40;99.90
35746;DHT22;21870;42.812;74.628;2023-02-28T14:49:58;9.60;99.90
35746;DHT22;21870;42.812;74.628;2023-02-28T14:52:28;9.70;99.90
35746;DHT22;21870;42.812;74.628;2023-02-28T14:55:04;9.80;99.90
35746;DHT22;21870;42.812;74.628;2023-02-28T14:57:34;9.70;99.90
35746;DHT22;21870;42.812;74.628;2023-02-28T15:00:15;9.50;99.90
35746;DHT22;21870;42.812;74.628;2023-02-28T15:02:42;9.50;99.90
35746;DHT22;21870;42.812;74.628;2023-02-28T15:07:43;9.50;99.90
35746;DHT22;21870;42.812;74.628;2023-02-28T15:10:23;9.50;99.90
35746;DHT22;21870;42.812;74.628;2023-02-28T15:15:24;9.50;99.90
35746;DHT22;21870;42.812;74.628;2023-02-28T15:17:54;9.50;99.90
35746;DHT22;21870;42.812;74.628;2023-02-28T15:20:23;9.50;99.90
35746;DHT22;21870;42.812;74.628;2023-02-28T15:22:51;9.50;99.90
35746;DHT22;21870;42.812;74.628;2023-02-28T15:25:20;9.40;99.90
35746;DHT22;21870;42.812;74.628;2023-02-28T15:27:52;9.30;99.90
35746;DHT22;21870;42.812;74.628;2023-02-28T15:30:28;9.20;99.90
35746;DHT22;21870;42.812;74.628;2023-02-28T15:33:17;9.30;99.90
35746;DHT22;21870;42.812;74.628;2023-02-28T15:35:44;9.20;99.90
35746;DHT22;21870;42.812;74.628;2023-02-28T15:38:17;9.00;99.90
35746;DHT22;21870;42.812;74.628;2023-02-28T15:40:51;9.00;99.90
35746;DHT22;21870;42.812;74.628;2023-02-28T15:43:28;8.80;99.90
35746;DHT22;21870;42.812;74.628;2023-02-28T15:46:19;8.60;99.90
35746;DHT22;21870;42.812;74.628;2023-02-28T15:48:55;8.50;99.90
35746;DHT22;21870;42.812;74.628;2023-02-28T15:51:49;8.50;99.90
35746;DHT22;21870;42.812;74.628;2023-02-28T15:54:32;8.50;99.90
35746;DHT22;21870;42.812;74.628;2023-02-28T15:57:07;8.40;99.90
35746;DHT22;21870;42.812;74.628;2023-02-28T15:59:36;8.40;99.90
35746;DHT22;21870;42.812;74.628;2023-02-28T16:07:26;8.20;99.90
35746;DHT22;21870;42.812;74.628;2023-02-28T16:09:53;8.10;99.90
35746;DHT22;21870;42.812;74.628;2023-02-28T16:12:20;8.10;99.90
35746;DHT22;21870;42.812;74.628;2023-02-28T16:14:51;8.20;99.90
35746;DHT22;21870;42.812;74.628;2023-02-28T16:17:23;8.20;99.90
35746;DHT22;21870;42.812;74.628;2023-02-28T16:19:50;8.20;99.90
35746;DHT22;21870;42.812;74.628;2023-02-28T16:22:16;8.20;99.90
35746;DHT22;21870;42.812;74.628;2023-02-28T16:24:42;8.10;99.90
35746;DHT22;21870;42.812;74.628;2023-02-28T16:27:32;8.20;99.90
35746;DHT22;21870;42.812;74.628;2023-02-28T16:30:01;8.20;99.90
35746;DHT22;21870;42.812;74.628;2023-02-28T16:32:35;8.20;99.90
35746;DHT22;21870;42.812;74.628;2023-02-28T16:35:03;8.10;99.90
35746;DHT22;21870;42.812;74.628;2023-02-28T16:37:29;8.00;99.90
35746;DHT22;21870;42.812;74.628;2023-02-28T16:39:55;7.90;99.90
35746;DHT22;21870;42.812;74.628;2023-02-28T16:42:24;7.70;99.90
35746;DHT22;21870;42.812;74.628;2023-02-28T16:44:52;7.50;99.90
35746;DHT22;21870;42.812;74.628;2023-02-28T16:47:18;7.40;99.90
35746;DHT22;21870;42.812;74.628;2023-02-28T16:49:45;7.50;99.90
35746;DHT22;21870;42.812;74.628;2023-02-28T16:52:13;7.60;99.90
35746;DHT22;21870;42.812;74.628;2023-02-28T16:54:41;7.60;99.90
35746;DHT22;21870;42.812;74.628;2023-02-28T16:57:19;7.70;99.90
35746;DHT22;21870;42.812;74.628;2023-02-28T16:59:47;7.80;99.90
35746;DHT22;21870;42.812;74.628;2023-02-28T17:02:15;7.70;99.90
35746;DHT22;21870;42.812;74.628;2023-02-28T17:04:42;7.70;99.90
35746;DHT22;21870;42.812;74.628;2023-02-28T17:07:12;7.70;99.90
35746;DHT22;21870;42.812;74.628;2023-02-28T17:09:39;7.60;99.90
35746;DHT22;21870;42.812;74.628;2023-02-28T17:12:05;7.50;99.90
35746;DHT22;21870;42.812;74.628;2023-02-28T17:14:31;7.50;99.90
35746;DHT22;21870;42.812;74.628;2023-02-28T17:16:57;7.60;99.90
35746;DHT22;21870;42.812;74.628;2023-02-28T17:19:23;7.60;99.90
35746;DHT22;21870;42.812;74.628;2023-02-28T17:21:49;7.50;99.90
35746;DHT22;21870;42.812;74.628;2023-02-28T17:24:15;7.50;99.90
35746;DHT22;21870;42.812;74.628;2023-02-28T17:26:42;7.40;99.90
35746;DHT22;21870;42.812;74.628;2023-02-28T17:29:19;7.30;99.90
35746;DHT22;21870;42.812;74.628;2023-02-28T17:31:46;7.20;99.90
35746;DHT22;21870;42.812;74.628;2023-02-28T17:34:12;7.20;99.90
35746;DHT22;21870;42.812;74.628;2023-02-28T17:36:49;7.00;99.90
35746;DHT22;21870;42.812;74.628;2023-02-28T17:39:17;6.80;99.90
35746;DHT22;21870;42.812;74.628;2023-02-28T17:41:56;6.90;99.90
35746;DHT22;21870;42.812;74.628;2023-02-28T17:44:23;6.80;99.90
35746;DHT22;21870;42.812;74.628;2023-02-28T17:46:50;6.80;99.90
35746;DHT22;21870;42.812;74.628;2023-02-28T17:49:20;6.80;99.90
35746;DHT22;21870;42.812;74.628;2023-02-28T17:51:47;7.10;99.90
35746;DHT22;21870;42.812;74.628;2023-02-28T17:54:13;7.00;99.90
35746;DHT22;21870;42.812;74.628;2023-02-28T17:56:40;7.10;99.90